createdAt,value
2023-04-08T00:00:01.137Z,102027.56
2023-04-08T00:02:29.007Z,102029.75
2023-04-08T00:04:56.848Z,102031.56
2023-04-08T00:07:24.545Z,102026.47
2023-04-08T00:09:52.072Z,102031.13
2023-04-08T00:12:19.695Z,102028.78
2023-04-08T00:14:48.697Z,102025.50
2023-04-08T00:17:16.685Z,102030.59
2023-04-08T00:19:44.511Z,102040.06
2023-04-08T00:22:12.414Z,102031.78
2023-04-08T00:24:40.427Z,102038.78
2023-04-08T00:27:08.034Z,102045.06
2023-04-08T00:29:35.679Z,102041.44
2023-04-08T00:32:04.775Z,102044.72
2023-04-08T00:34:32.455Z,102047.50
2023-04-08T00:37:01.065Z,102044.97
2023-04-08T00:39:28.675Z,102049.66
2023-04-08T00:41:56.237Z,102050.16
2023-04-08T00:44:24.020Z,102042.28
2023-04-08T00:46:51.598Z,102048.88
2023-04-08T00:49:20.837Z,102043.34
2023-04-08T00:51:48.483Z,102040.56
2023-04-08T00:54:16.088Z,102050.03
2023-04-08T00:56:45.485Z,102042.38
2023-04-08T00:59:13.152Z,102043.50
2023-04-08T01:01:45.478Z,102048.00
2023-04-08T01:04:22.262Z,102042.69
2023-04-08T01:06:58.208Z,102053.31
2023-04-08T01:09:31.093Z,102051.94
2023-04-08T01:12:03.095Z,102053.84
2023-04-08T01:14:32.704Z,102053.84
2023-04-08T01:17:03.141Z,102047.41
2023-04-08T01:19:34.063Z,102052.94
2023-04-08T01:22:12.420Z,102048.66
2023-04-08T01:24:44.212Z,102042.38
2023-04-08T01:27:15.110Z,102045.09
2023-04-08T01:29:44.177Z,102046.25
2023-04-08T01:32:12.960Z,102044.66
2023-04-08T01:34:41.973Z,102047.75
2023-04-08T01:37:10.329Z,102041.41
2023-04-08T01:39:41.125Z,102043.59
2023-04-08T01:42:10.589Z,102049.22
2023-04-08T01:44:41.103Z,102048.91
2023-04-08T01:47:10.190Z,102037.97
2023-04-08T01:49:39.093Z,102041.59
2023-04-08T01:52:10.210Z,102039.44
2023-04-08T01:54:38.806Z,102044.78
2023-04-08T01:57:09.710Z,102046.63
2023-04-08T01:59:41.573Z,102046.00
2023-04-08T02:02:11.141Z,102039.19
2023-04-08T02:04:39.882Z,102036.69
2023-04-08T02:07:07.695Z,102032.97
2023-04-08T02:09:35.416Z,102024.63
2023-04-08T02:12:04.218Z,102034.06
2023-04-08T02:14:31.832Z,102027.44
2023-04-08T02:17:07.313Z,102027.66
2023-04-08T02:19:41.028Z,102025.66
2023-04-08T02:22:17.950Z,102030.69
2023-04-08T02:24:46.983Z,102023.19
2023-04-08T02:27:14.904Z,102032.06
2023-04-08T02:29:43.303Z,102022.97
2023-04-08T02:32:13.298Z,102029.94
2023-04-08T02:34:41.583Z,102025.63
2023-04-08T02:37:09.614Z,102026.91
2023-04-08T02:39:37.261Z,102025.47
2023-04-08T02:42:05.309Z,102029.47
2023-04-08T02:44:32.889Z,102030.78
2023-04-08T02:47:03.378Z,102022.66
2023-04-08T02:49:32.279Z,102021.44
2023-04-08T02:51:59.885Z,102020.47
2023-04-08T02:54:27.416Z,102022.66
2023-04-08T02:56:55.086Z,102036.59
2023-04-08T02:59:22.854Z,102034.97
2023-04-08T03:01:50.590Z,102037.13
2023-04-08T03:04:18.241Z,102033.59
2023-04-08T03:06:47.164Z,102038.78
2023-04-08T03:09:14.798Z,102033.47
2023-04-08T03:11:42.337Z,102033.34
2023-04-08T03:14:09.897Z,102027.22
2023-04-08T03:16:37.502Z,102036.47
2023-04-08T03:19:05.380Z,102046.50
2023-04-08T03:21:33.042Z,102041.31
2023-04-08T03:24:01.956Z,102051.22
2023-04-08T03:26:29.488Z,102048.78
2023-04-08T03:28:57.045Z,102055.69
2023-04-08T03:31:24.733Z,102059.78
2023-04-08T03:33:52.321Z,102058.94
2023-04-08T03:36:19.858Z,102061.97
2023-04-08T03:38:47.482Z,102063.72
2023-04-08T03:41:16.601Z,102065.41
2023-04-08T03:43:44.153Z,102069.25
2023-04-08T03:46:11.949Z,102066.03
2023-04-08T03:48:39.626Z,102074.81
2023-04-08T03:51:07.281Z,102069.63
2023-04-08T03:53:35.123Z,102064.50
2023-04-08T03:56:03.497Z,102071.56
2023-04-08T03:58:32.845Z,102073.19
2023-04-08T04:01:00.479Z,102072.34
2023-04-08T04:03:28.477Z,102074.03
2023-04-08T04:05:56.141Z,102073.59
2023-04-08T04:08:23.782Z,102074.66
2023-04-08T04:10:51.543Z,102073.88
2023-04-08T04:13:19.516Z,102078.13
2023-04-08T04:15:48.451Z,102087.91
2023-04-08T04:18:16.159Z,102083.81
2023-04-08T04:20:44.287Z,102084.41
2023-04-08T04:23:11.907Z,102086.28
2023-04-08T04:25:42.173Z,102089.44
2023-04-08T04:28:10.056Z,102097.03
2023-04-08T04:30:38.206Z,102094.84
2023-04-08T04:33:07.742Z,102091.16
2023-04-08T04:35:35.368Z,102095.63
2023-04-08T04:38:02.961Z,102096.72
2023-04-08T04:40:30.573Z,102097.69
2023-04-08T04:42:58.114Z,102106.19
2023-04-08T04:45:25.901Z,102107.34
2023-04-08T04:47:53.508Z,102110.16
2023-04-08T04:50:22.512Z,102109.31
2023-04-08T04:52:50.250Z,102115.22
2023-04-08T04:55:17.849Z,102109.91
2023-04-08T04:57:45.505Z,102114.69
2023-04-08T05:00:13.547Z,102119.72
2023-04-08T05:02:41.283Z,102121.44
2023-04-08T05:05:10.102Z,102127.84
2023-04-08T05:07:39.748Z,102126.16
2023-04-08T05:10:08.078Z,102123.31
2023-04-08T05:12:37.090Z,102131.75
2023-04-08T05:15:04.988Z,102140.28
2023-04-08T05:17:32.636Z,102138.88
2023-04-08T05:20:00.592Z,102140.53
2023-04-08T05:22:28.123Z,102137.69
2023-04-08T05:24:57.006Z,102146.75
2023-04-08T05:27:24.545Z,102141.59
2023-04-08T05:29:52.225Z,102143.44
2023-04-08T05:32:19.878Z,102144.09
2023-04-08T05:34:47.407Z,102149.41
2023-04-08T05:37:14.952Z,102149.25
2023-04-08T05:39:42.745Z,102143.56
2023-04-08T05:42:13.752Z,102144.69
2023-04-08T05:44:43.748Z,102146.19
2023-04-08T05:47:11.446Z,102152.16
2023-04-08T05:49:39.356Z,102150.22
2023-04-08T05:52:07.033Z,102146.25
2023-04-08T05:54:34.636Z,102152.66
2023-04-08T05:57:02.233Z,102151.28
2023-04-08T05:59:31.083Z,102147.59
2023-04-08T06:01:58.763Z,102160.28
2023-04-08T06:04:26.507Z,102160.91
2023-04-08T06:06:54.150Z,102154.78
2023-04-08T06:09:21.671Z,102162.28
2023-04-08T06:11:50.668Z,102168.59
2023-04-08T06:14:18.295Z,102159.91
2023-04-08T06:16:47.515Z,102167.13
2023-04-08T06:19:15.378Z,102170.66
2023-04-08T06:21:43.053Z,102172.41
2023-04-08T06:24:10.680Z,102174.78
2023-04-08T06:26:38.253Z,102178.69
2023-04-08T06:29:05.833Z,102183.16
2023-04-08T06:31:33.434Z,102194.03
2023-04-08T06:34:02.349Z,102190.03
2023-04-08T06:36:29.936Z,102188.72
2023-04-08T06:38:57.503Z,102192.34
2023-04-08T06:41:25.069Z,102193.47
2023-04-08T06:43:52.696Z,102192.22
2023-04-08T06:46:20.858Z,102205.19
2023-04-08T06:48:48.815Z,102202.09
2023-04-08T06:51:17.807Z,102203.69
2023-04-08T06:53:45.480Z,102211.47
2023-04-08T06:56:13.036Z,102210.50
2023-04-08T06:58:40.579Z,102214.16
2023-04-08T07:01:08.165Z,102215.53
2023-04-08T07:03:35.871Z,102218.47
2023-04-08T07:06:04.511Z,102231.75
2023-04-08T07:08:33.422Z,102223.06
2023-04-08T07:11:01.050Z,102225.72
2023-04-08T07:13:29.396Z,102227.81
2023-04-08T07:15:56.961Z,102230.97
2023-04-08T07:18:26.146Z,102221.59
2023-04-08T07:20:54.242Z,102220.94
2023-04-08T07:23:22.148Z,102223.28
2023-04-08T07:25:51.455Z,102226.38
2023-04-08T07:28:19.155Z,102232.72
2023-04-08T07:30:46.974Z,102231.72
2023-04-08T07:33:15.836Z,102235.97
2023-04-08T07:35:43.658Z,102236.41
2023-04-08T07:38:12.031Z,102238.09
2023-04-08T07:40:39.644Z,102236.13
2023-04-08T07:43:09.078Z,102241.97
2023-04-08T07:45:36.689Z,102242.69
2023-04-08T07:48:04.347Z,102245.63
2023-04-08T07:50:32.188Z,102244.31
2023-04-08T07:52:59.706Z,102249.56
2023-04-08T07:55:27.304Z,102250.41
2023-04-08T07:57:55.195Z,102254.56
2023-04-08T08:00:24.477Z,102258.19
2023-04-08T08:02:52.202Z,102258.78
2023-04-08T08:05:20.044Z,102260.13
2023-04-08T08:07:47.660Z,102263.44
2023-04-08T08:10:15.307Z,102267.66
2023-04-08T08:12:42.880Z,102263.72
2023-04-08T08:15:11.524Z,102273.56
2023-04-08T08:17:40.409Z,102279.97
2023-04-08T08:20:09.053Z,102276.59
2023-04-08T08:22:47.150Z,102272.97
2023-04-08T08:25:25.948Z,102269.88
2023-04-08T08:27:55.262Z,102274.59
2023-04-08T08:30:22.857Z,102274.66
2023-04-08T08:32:52.153Z,102277.69
2023-04-08T08:35:19.830Z,102284.47
2023-04-08T08:37:47.468Z,102278.78
2023-04-08T08:40:15.795Z,102274.69
2023-04-08T08:42:44.090Z,102284.94
2023-04-08T08:45:11.694Z,102277.88
2023-04-08T08:47:39.268Z,102288.22
2023-04-08T08:50:08.940Z,102284.19
2023-04-08T08:52:36.489Z,102288.53
2023-04-08T08:55:16.807Z,102292.81
2023-04-08T08:57:52.082Z,102298.56
2023-04-08T09:00:19.818Z,102290.97
2023-04-08T09:02:47.639Z,102294.50
2023-04-08T09:05:17.169Z,102295.38
2023-04-08T09:07:45.524Z,102287.78
2023-04-08T09:10:13.084Z,102291.59
2023-04-08T09:12:56.516Z,102299.41
2023-04-08T09:15:24.110Z,102298.44
2023-04-08T09:17:52.088Z,102297.56
2023-04-08T09:20:21.139Z,102299.25
2023-04-08T09:22:59.779Z,102302.69
2023-04-08T09:25:28.979Z,102307.00
2023-04-08T09:27:56.592Z,102303.91
2023-04-08T09:30:25.957Z,102304.03
2023-04-08T09:32:55.428Z,102308.63
2023-04-08T09:35:25.565Z,102310.75
2023-04-08T09:37:53.246Z,102316.66
2023-04-08T09:40:21.209Z,102310.94
2023-04-08T09:42:51.986Z,102306.25
2023-04-08T09:45:20.438Z,102318.34
2023-04-08T09:47:58.488Z,102320.03
2023-04-08T09:50:33.560Z,102313.03
2023-04-08T09:53:14.488Z,102322.53
2023-04-08T09:55:45.104Z,102324.44
2023-04-08T09:58:17.869Z,102320.84
2023-04-08T10:00:51.028Z,102322.09
2023-04-08T10:03:27.664Z,102319.59
2023-04-08T10:05:57.451Z,102323.47
2023-04-08T10:08:27.956Z,102322.19
2023-04-08T10:10:56.186Z,102322.19
2023-04-08T10:13:24.453Z,102310.94
2023-04-08T10:16:19.811Z,102312.09
2023-04-08T10:18:47.421Z,102318.59
2023-04-08T10:21:34.495Z,102328.13
2023-04-08T10:24:06.305Z,102311.44
2023-04-08T10:26:36.332Z,102315.75
2023-04-08T10:29:32.681Z,102322.41
2023-04-08T10:32:01.449Z,102323.31
2023-04-08T10:34:29.730Z,102321.69
2023-04-08T10:37:01.977Z,102315.44
2023-04-08T10:39:29.712Z,102330.97
2023-04-08T10:41:57.464Z,102326.69
2023-04-08T10:44:27.307Z,102333.00
2023-04-08T10:46:55.678Z,102324.09
2023-04-08T10:49:23.939Z,102332.00
2023-04-08T10:51:52.323Z,102331.09
2023-04-08T10:54:21.266Z,102329.72
2023-04-08T10:56:50.833Z,102330.59
2023-04-08T10:59:28.901Z,102324.34
2023-04-08T11:01:57.135Z,102336.25
2023-04-08T11:04:26.366Z,102343.22
2023-04-08T11:06:54.054Z,102330.88
2023-04-08T11:09:22.967Z,102342.06
2023-04-08T11:11:51.464Z,102340.06
2023-04-08T11:14:21.761Z,102345.34
2023-04-08T11:16:49.637Z,102337.03
2023-04-08T11:19:18.081Z,102342.28
2023-04-08T11:21:46.738Z,102334.81
2023-04-08T11:24:16.370Z,102344.00
2023-04-08T11:26:45.559Z,102348.41
2023-04-08T11:29:14.611Z,102342.41
2023-04-08T11:31:43.542Z,102342.78
2023-04-08T11:34:11.435Z,102340.41
2023-04-08T11:36:41.800Z,102335.53
2023-04-08T11:39:11.502Z,102345.22
2023-04-08T11:41:40.516Z,102333.09
2023-04-08T11:44:09.926Z,102339.88
2023-04-08T11:46:37.899Z,102338.72
2023-04-08T11:49:07.686Z,102338.56
2023-04-08T11:51:37.754Z,102340.28
2023-04-08T11:54:07.212Z,102345.41
2023-04-08T11:56:47.038Z,102336.66
2023-04-08T11:59:16.308Z,102344.09
2023-04-08T12:01:44.161Z,102337.31
2023-04-08T12:04:12.649Z,102339.63
2023-04-08T12:06:43.356Z,102344.47
2023-04-08T12:09:10.999Z,102348.59
2023-04-08T12:11:38.556Z,102349.56
2023-04-08T12:14:06.129Z,102354.09
2023-04-08T12:16:35.157Z,102349.91
2023-04-08T12:19:03.067Z,102358.03
2023-04-08T12:21:30.558Z,102358.25
2023-04-08T12:23:58.161Z,102347.63
2023-04-08T12:26:27.074Z,102351.56
2023-04-08T12:28:54.736Z,102356.28
2023-04-08T12:31:23.196Z,102347.31
2023-04-08T12:33:52.351Z,102350.91
2023-04-08T12:36:20.358Z,102346.25
2023-04-08T12:38:48.170Z,102348.38
2023-04-08T12:41:15.938Z,102356.16
2023-04-08T12:43:43.491Z,102354.53
2023-04-08T12:46:11.059Z,102350.22
2023-04-08T12:48:38.639Z,102351.78
2023-04-08T12:51:10.086Z,102357.63
2023-04-08T12:53:37.597Z,102364.00
2023-04-08T12:56:05.756Z,102362.88
2023-04-08T12:58:33.274Z,102357.69
2023-04-08T13:01:01.024Z,102357.03
2023-04-08T13:03:30.386Z,102363.06
2023-04-08T13:05:58.973Z,102358.56
2023-04-08T13:08:27.857Z,102364.94
2023-04-08T13:10:55.521Z,102369.84
2023-04-08T13:13:23.228Z,102368.59
2023-04-08T13:15:50.903Z,102366.94
2023-04-08T13:18:18.461Z,102360.22
2023-04-08T13:20:46.164Z,102365.91
2023-04-08T13:23:15.144Z,102364.53
2023-04-08T13:25:45.476Z,102359.09
2023-04-08T13:28:13.081Z,102367.53
2023-04-08T13:30:40.821Z,102363.16
2023-04-08T13:33:08.626Z,102365.38
2023-04-08T13:35:36.581Z,102371.06
2023-04-08T13:38:04.135Z,102363.59
2023-04-08T13:40:31.925Z,102367.41
2023-04-08T13:43:01.436Z,102364.44
2023-04-08T13:45:28.989Z,102362.22
2023-04-08T13:47:56.852Z,102367.53
2023-04-08T13:50:24.649Z,102362.13
2023-04-08T13:52:52.223Z,102364.44
2023-04-08T13:55:19.915Z,102356.50
2023-04-08T13:57:47.547Z,102361.97
2023-04-08T14:00:16.790Z,102355.97
2023-04-08T14:02:44.491Z,102367.50
2023-04-08T14:05:12.338Z,102359.38
2023-04-08T14:07:39.958Z,102362.69
2023-04-08T14:10:08.988Z,102361.34
2023-04-08T14:12:36.837Z,102361.41
2023-04-08T14:15:05.090Z,102359.72
2023-04-08T14:17:34.920Z,102363.94
2023-04-08T14:20:02.780Z,102360.38
2023-04-08T14:22:30.343Z,102356.25
2023-04-08T14:24:57.895Z,102360.28
2023-04-08T14:27:25.756Z,102356.81
2023-04-08T14:29:53.319Z,102359.59
2023-04-08T14:32:20.863Z,102358.25
2023-04-08T14:34:50.117Z,102364.69
2023-04-08T14:37:18.730Z,102368.66
2023-04-08T14:39:46.474Z,102361.81
2023-04-08T14:42:16.494Z,102357.19
2023-04-08T14:44:44.209Z,102355.78
2023-04-08T14:47:12.077Z,102352.56
2023-04-08T14:49:39.736Z,102354.28
2023-04-08T14:52:08.808Z,102351.25
2023-04-08T14:54:36.553Z,102355.44
2023-04-08T14:57:04.341Z,102345.63
2023-04-08T14:59:32.340Z,102353.03
2023-04-08T15:02:00.461Z,102356.38
2023-04-08T15:04:28.128Z,102346.75
2023-04-08T15:06:55.818Z,102349.72
2023-04-08T15:09:24.962Z,102354.41
2023-04-08T15:11:52.675Z,102352.66
2023-04-08T15:14:20.354Z,102351.25
2023-04-08T15:16:48.009Z,102347.00
2023-04-08T15:19:16.072Z,102348.31
2023-04-08T15:21:43.618Z,102351.06
2023-04-08T15:24:11.279Z,102355.56
2023-04-08T15:26:40.172Z,102355.75
2023-04-08T15:29:07.802Z,102350.13
2023-04-08T15:31:35.906Z,102364.00
2023-04-08T15:34:03.630Z,102359.38
2023-04-08T15:36:32.109Z,102362.69
2023-04-08T15:38:59.715Z,102353.91
2023-04-08T15:41:27.248Z,102367.09
2023-04-08T15:43:56.146Z,102368.59
2023-04-08T15:46:23.984Z,102359.41
2023-04-08T15:48:51.832Z,102365.31
2023-04-08T15:51:20.222Z,102366.31
2023-04-08T15:53:47.779Z,102371.00
2023-04-08T15:56:16.028Z,102369.63
2023-04-08T15:58:43.879Z,102367.44
2023-04-08T16:01:13.226Z,102373.00
2023-04-08T16:03:40.939Z,102370.88
2023-04-08T16:06:09.031Z,102379.25
2023-04-08T16:08:37.046Z,102378.63
2023-04-08T16:11:06.195Z,102377.25
2023-04-08T16:13:34.132Z,102377.88
2023-04-08T16:16:03.047Z,102373.50
2023-04-08T16:18:32.196Z,102374.88
2023-04-08T16:20:59.879Z,102376.91
2023-04-08T16:23:27.442Z,102376.00
2023-04-08T16:25:55.874Z,102374.59
2023-04-08T16:28:23.584Z,102373.63
2023-04-08T16:30:51.181Z,102373.41
2023-04-08T16:33:18.701Z,102376.97
2023-04-08T16:35:49.144Z,102380.28
2023-04-08T16:38:16.788Z,102381.97
2023-04-08T16:40:44.285Z,102375.22
2023-04-08T16:43:12.789Z,102380.81
2023-04-08T16:45:41.836Z,102380.25
2023-04-08T16:48:09.657Z,102379.94
2023-04-08T16:50:38.738Z,102381.22
2023-04-08T16:53:07.748Z,102377.56
2023-04-08T16:55:35.961Z,102373.84
2023-04-08T16:58:04.645Z,102379.03
2023-04-08T17:00:32.278Z,102378.69
2023-04-08T17:03:00.545Z,102370.66
2023-04-08T17:05:28.394Z,102375.22
2023-04-08T17:07:57.570Z,102374.66
2023-04-08T17:10:26.492Z,102370.34
2023-04-08T17:12:54.077Z,102378.00
2023-04-08T17:15:21.647Z,102378.84
2023-04-08T17:17:49.226Z,102382.59
2023-04-08T17:20:17.025Z,102379.97
2023-04-08T17:22:44.581Z,102379.22
2023-04-08T17:25:12.822Z,102370.47
2023-04-08T17:27:41.729Z,102382.25
2023-04-08T17:30:11.404Z,102378.31
2023-04-08T17:32:39.222Z,102378.50
2023-04-08T17:35:07.390Z,102379.72
2023-04-08T17:37:34.965Z,102374.38
2023-04-08T17:40:02.920Z,102381.41
2023-04-08T17:42:30.463Z,102374.31
2023-04-08T17:45:01.553Z,102381.16
2023-04-08T17:47:29.212Z,102382.41
2023-04-08T17:49:56.986Z,102383.09
2023-04-08T17:52:24.696Z,102378.66
2023-04-08T17:54:52.217Z,102383.66
2023-04-08T17:57:19.764Z,102380.94
2023-04-08T17:59:47.672Z,102387.75
2023-04-08T18:02:16.633Z,102385.56
2023-04-08T18:04:44.530Z,102383.25
2023-04-08T18:07:12.039Z,102385.56
2023-04-08T18:09:40.771Z,102384.38
2023-04-08T18:12:08.273Z,102387.81
2023-04-08T18:14:36.665Z,102393.22
2023-04-08T18:17:04.398Z,102398.38
2023-04-08T18:19:33.283Z,102405.00
2023-04-08T18:22:00.800Z,102405.31
2023-04-08T18:24:28.317Z,102402.97
2023-04-08T18:27:04.052Z,102410.25
2023-04-08T18:29:32.167Z,102411.88
2023-04-08T18:31:59.729Z,102406.38
2023-04-08T18:34:27.297Z,102406.84
2023-04-08T18:36:56.162Z,102409.81
2023-04-08T18:39:23.983Z,102418.34
2023-04-08T18:41:51.506Z,102422.44
2023-04-08T18:44:19.101Z,102417.78
2023-04-08T18:46:46.622Z,102413.63
2023-04-08T18:49:14.185Z,102420.16
2023-04-08T18:51:46.383Z,102418.34
2023-04-08T18:54:24.273Z,102423.66
2023-04-08T18:56:51.773Z,102426.69
2023-04-08T18:59:19.366Z,102431.78
2023-04-08T19:01:47.012Z,102438.78
2023-04-08T19:04:14.618Z,102432.31
2023-04-08T19:06:42.491Z,102432.38
2023-04-08T19:09:10.058Z,102435.44
2023-04-08T19:11:38.956Z,102441.44
2023-04-08T19:14:07.682Z,102435.94
2023-04-08T19:16:35.492Z,102441.69
2023-04-08T19:19:03.465Z,102430.19
2023-04-08T19:21:32.653Z,102432.00
2023-04-08T19:24:00.148Z,102438.56
2023-04-08T19:26:27.701Z,102429.47
2023-04-08T19:28:56.622Z,102426.69
2023-04-08T19:31:24.495Z,102429.19
2023-04-08T19:33:52.260Z,102431.16
2023-04-08T19:36:20.080Z,102427.28
2023-04-08T19:38:47.853Z,102431.22
2023-04-08T19:41:15.444Z,102429.41
2023-04-08T19:43:42.922Z,102423.78
2023-04-08T19:46:12.062Z,102426.75
2023-04-08T19:48:39.615Z,102427.59
2023-04-08T19:51:07.560Z,102428.44
2023-04-08T19:53:35.161Z,102420.81
2023-04-08T19:56:03.438Z,102422.66
2023-04-08T19:58:31.176Z,102422.22
2023-04-08T20:00:58.720Z,102421.13
2023-04-08T20:03:27.835Z,102423.50
2023-04-08T20:05:55.718Z,102429.78
2023-04-08T20:08:23.244Z,102424.09
2023-04-08T20:10:51.197Z,102429.28
2023-04-08T20:13:18.792Z,102427.28
2023-04-08T20:15:46.375Z,102433.47
2023-04-08T20:18:16.146Z,102427.84
2023-04-08T20:20:46.730Z,102431.47
2023-04-08T20:23:14.568Z,102433.47
2023-04-08T20:25:42.323Z,102438.19
2023-04-08T20:28:10.100Z,102436.13
2023-04-08T20:30:37.813Z,102445.47
2023-04-08T20:33:05.404Z,102446.28
2023-04-08T20:35:33.208Z,102449.19
2023-04-08T20:38:02.484Z,102440.13
2023-04-08T20:40:30.037Z,102447.06
2023-04-08T20:42:57.619Z,102450.09
2023-04-08T20:45:25.477Z,102452.47
2023-04-08T20:47:53.958Z,102448.28
2023-04-08T20:50:21.858Z,102455.06
2023-04-08T20:52:49.354Z,102447.75
2023-04-08T20:55:18.421Z,102449.97
2023-04-08T20:57:47.741Z,102448.81
2023-04-08T21:00:16.900Z,102445.47
2023-04-08T21:02:44.831Z,102452.16
2023-04-08T21:05:12.429Z,102446.16
2023-04-08T21:07:44.176Z,102449.97
2023-04-08T21:10:12.840Z,102451.25
2023-04-08T21:12:41.713Z,102447.75
2023-04-08T21:15:10.592Z,102450.78
2023-04-08T21:17:38.103Z,102451.50
2023-04-08T21:20:06.996Z,102449.13
2023-04-08T21:22:34.567Z,102452.63
2023-04-08T21:25:02.122Z,102446.75
2023-04-08T21:27:29.829Z,102444.09
2023-04-08T21:29:58.745Z,102449.44
2023-04-08T21:32:28.742Z,102444.72
2023-04-08T21:34:57.586Z,102448.03
2023-04-08T21:37:25.266Z,102439.81
2023-04-08T21:39:53.745Z,102440.97
2023-04-08T21:42:22.802Z,102451.47
2023-04-08T21:44:50.432Z,102455.78
2023-04-08T21:47:19.322Z,102454.25
2023-04-08T21:49:46.895Z,102461.28
2023-04-08T21:52:14.452Z,102448.34
2023-04-08T21:54:42.021Z,102454.13
2023-04-08T21:57:09.557Z,102461.81
2023-04-08T21:59:37.123Z,102453.38
2023-04-08T22:02:04.718Z,102456.50
2023-04-08T22:04:34.579Z,102460.97
2023-04-08T22:07:02.220Z,102455.34
2023-04-08T22:09:29.768Z,102459.84
2023-04-08T22:11:57.827Z,102461.22
2023-04-08T22:14:25.535Z,102466.25
2023-04-08T22:16:53.219Z,102464.72
2023-04-08T22:19:20.836Z,102464.72
2023-04-08T22:21:50.950Z,102450.41
2023-04-08T22:24:18.586Z,102457.03
2023-04-08T22:26:46.228Z,102464.00
2023-04-08T22:29:13.787Z,102461.88
2023-04-08T22:31:41.326Z,102451.41
2023-04-08T22:34:08.845Z,102454.75
2023-04-08T22:36:36.421Z,102454.75
2023-04-08T22:39:05.308Z,102462.06
2023-04-08T22:41:32.820Z,102456.03
2023-04-08T22:44:00.518Z,102455.91
2023-04-08T22:46:28.062Z,102459.84
2023-04-08T22:48:55.613Z,102455.78
2023-04-08T22:51:23.323Z,102460.13
2023-04-08T22:53:51.114Z,102456.31
2023-04-08T22:56:20.047Z,102461.81
2023-04-08T22:58:47.563Z,102454.69
2023-04-08T23:01:17.348Z,102456.50
2023-04-08T23:03:45.116Z,102445.97
2023-04-08T23:06:12.743Z,102452.59
2023-04-08T23:08:40.554Z,102454.97
2023-04-08T23:11:08.264Z,102462.34
2023-04-08T23:13:37.170Z,102457.34
2023-04-08T23:16:04.915Z,102463.25
2023-04-08T23:18:32.508Z,102464.38
2023-04-08T23:21:00.068Z,102465.91
2023-04-08T23:23:27.608Z,102463.56
2023-04-08T23:25:55.817Z,102465.75
2023-04-08T23:28:23.699Z,102467.72
2023-04-08T23:30:52.634Z,102463.56
2023-04-08T23:33:20.258Z,102459.75
2023-04-08T23:35:47.835Z,102457.38
2023-04-08T23:38:15.426Z,102453.50
2023-04-08T23:40:42.990Z,102457.00
2023-04-08T23:43:10.507Z,102463.31
2023-04-08T23:45:38.148Z,102453.50
2023-04-08T23:48:10.033Z,102458.81
2023-04-08T23:50:37.897Z,102454.34
2023-04-08T23:53:05.441Z,102455.47
2023-04-08T23:55:32.980Z,102456.59
2023-04-08T23:58:00.540Z,102458.13
